sensor_id;sensor_type;location;lat;lon;timestamp;temperature;humidity
19397;DHT22;9834;48.076;11.878;2024-02-23T00:02:07;7.00;99.90
19397;DHT22;9834;48.076;11.878;2024-02-23T00:04:34;6.80;99.90
19397;DHT22;9834;48.076;11.878;2024-02-23T00:07:02;6.60;99.90
19397;DHT22;9834;48.076;11.878;2024-02-23T00:09:31;6.70;99.90
19397;DHT22;9834;48.076;11.878;2024-02-23T00:12:02;6.40;99.90
19397;DHT22;9834;48.076;11.878;2024-02-23T00:14:29;6.30;99.90
19397;DHT22;9834;48.076;11.878;2024-02-23T00:16:58;6.30;99.90
19397;DHT22;9834;48.076;11.878;2024-02-23T00:19:27;6.30;99.90
19397;DHT22;9834;48.076;11.878;2024-02-23T00:21:54;6.30;99.90
19397;DHT22;9834;48.076;11.878;2024-02-23T00:24:22;6.70;99.90
19397;DHT22;9834;48.076;11.878;2024-02-23T00:26:53;6.30;99.90
19397;DHT22;9834;48.076;11.878;2024-02-23T00:29:34;6.50;99.90
19397;DHT22;9834;48.076;11.878;2024-02-23T00:32:05;6.70;99.90
19397;DHT22;9834;48.076;11.878;2024-02-23T00:34:41;6.40;99.90
19397;DHT22;9834;48.076;11.878;2024-02-23T00:37:09;6.40;99.90
19397;DHT22;9834;48.076;11.878;2024-02-23T00:39:37;6.40;99.90
19397;DHT22;9834;48.076;11.878;2024-02-23T00:42:07;6.40;99.90
19397;DHT22;9834;48.076;11.878;2024-02-23T00:44:36;6.40;99.90
19397;DHT22;9834;48.076;11.878;2024-02-23T00:47:06;6.50;99.90
19397;DHT22;9834;48.076;11.878;2024-02-23T00:49:33;6.30;99.90
19397;DHT22;9834;48.076;11.878;2024-02-23T00:52:01;6.30;99.90
19397;DHT22;9834;48.076;11.878;2024-02-23T00:54:35;6.30;99.90
19397;DHT22;9834;48.076;11.878;2024-02-23T00:57:11;6.30;99.90
19397;DHT22;9834;48.076;11.878;2024-02-23T00:59:38;6.20;99.90
19397;DHT22;9834;48.076;11.878;2024-02-23T01:02:05;6.30;99.90
19397;DHT22;9834;48.076;11.878;2024-02-23T01:04:34;6.20;99.90
19397;DHT22;9834;48.076;11.878;2024-02-23T01:07:06;6.20;99.90
19397;DHT22;9834;48.076;11.878;2024-02-23T01:09:34;6.20;99.90
19397;DHT22;9834;48.076;11.878;2024-02-23T01:12:02;6.20;99.90
19397;DHT22;9834;48.076;11.878;2024-02-23T01:14:31;6.20;99.90
19397;DHT22;9834;48.076;11.878;2024-02-23T01:16:58;6.20;99.90
19397;DHT22;9834;48.076;11.878;2024-02-23T01:19:26;6.20;99.90
19397;DHT22;9834;48.076;11.878;2024-02-23T01:21:54;6.10;99.90
19397;DHT22;9834;48.076;11.878;2024-02-23T01:24:25;6.20;99.90
19397;DHT22;9834;48.076;11.878;2024-02-23T01:26:53;6.20;99.90
19397;DHT22;9834;48.076;11.878;2024-02-23T01:29:21;6.10;99.90
19397;DHT22;9834;48.076;11.878;2024-02-23T01:31:51;6.00;99.90
19397;DHT22;9834;48.076;11.878;2024-02-23T01:34:20;6.10;99.90
19397;DHT22;9834;48.076;11.878;2024-02-23T01:36:46;6.30;99.90
19397;DHT22;9834;48.076;11.878;2024-02-23T01:39:13;6.20;99.90
19397;DHT22;9834;48.076;11.878;2024-02-23T01:41:43;6.10;99.90
19397;DHT22;9834;48.076;11.878;2024-02-23T01:44:10;6.10;99.90
19397;DHT22;9834;48.076;11.878;2024-02-23T01:46:38;6.10;99.90
19397;DHT22;9834;48.076;11.878;2024-02-23T01:49:08;6.10;99.90
19397;DHT22;9834;48.076;11.878;2024-02-23T01:51:36;6.00;99.90
19397;DHT22;9834;48.076;11.878;2024-02-23T01:54:04;5.90;99.90
19397;DHT22;9834;48.076;11.878;2024-02-23T01:56:33;5.90;99.90
19397;DHT22;9834;48.076;11.878;2024-02-23T01:59:02;5.90;99.90
19397;DHT22;9834;48.076;11.878;2024-02-23T02:01:30;5.90;99.90
19397;DHT22;9834;48.076;11.878;2024-02-23T02:03:58;5.90;99.90
19397;DHT22;9834;48.076;11.878;2024-02-23T02:06:27;5.90;99.90
19397;DHT22;9834;48.076;11.878;2024-02-23T02:08:54;5.90;99.90
19397;DHT22;9834;48.076;11.878;2024-02-23T02:11:21;6.00;99.90
19397;DHT22;9834;48.076;11.878;2024-02-23T02:13:48;6.00;99.90
19397;DHT22;9834;48.076;11.878;2024-02-23T02:16:15;6.30;99.90
19397;DHT22;9834;48.076;11.878;2024-02-23T02:18:44;5.90;99.90
19397;DHT22;9834;48.076;11.878;2024-02-23T02:21:12;5.90;99.90
19397;DHT22;9834;48.076;11.878;2024-02-23T02:23:41;5.90;99.90
19397;DHT22;9834;48.076;11.878;2024-02-23T02:26:10;5.90;99.90
19397;DHT22;9834;48.076;11.878;2024-02-23T02:28:37;6.10;99.90
19397;DHT22;9834;48.076;11.878;2024-02-23T02:31:05;5.70;99.90
19397;DHT22;9834;48.076;11.878;2024-02-23T02:33:40;5.90;99.90
19397;DHT22;9834;48.076;11.878;2024-02-23T02:36:10;5.90;99.90
19397;DHT22;9834;48.076;11.878;2024-02-23T02:38:37;5.80;99.90
19397;DHT22;9834;48.076;11.878;2024-02-23T02:41:09;5.80;99.90
19397;DHT22;9834;48.076;11.878;2024-02-23T02:43:36;5.80;99.90
19397;DHT22;9834;48.076;11.878;2024-02-23T02:46:04;5.80;99.90
19397;DHT22;9834;48.076;11.878;2024-02-23T02:48:31;5.70;99.90
19397;DHT22;9834;48.076;11.878;2024-02-23T02:50:58;5.70;99.90
19397;DHT22;9834;48.076;11.878;2024-02-23T02:53:30;5.70;99.90
19397;DHT22;9834;48.076;11.878;2024-02-23T02:56:00;5.70;99.90
19397;DHT22;9834;48.076;11.878;2024-02-23T02:58:29;5.70;99.90
19397;DHT22;9834;48.076;11.878;2024-02-23T03:00:57;5.70;99.90
19397;DHT22;9834;48.076;11.878;2024-02-23T03:03:27;5.70;99.90
19397;DHT22;9834;48.076;11.878;2024-02-23T03:05:56;5.60;99.90
19397;DHT22;9834;48.076;11.878;2024-02-23T03:08:27;5.50;99.90
19397;DHT22;9834;48.076;11.878;2024-02-23T03:10:56;5.70;99.90
19397;DHT22;9834;48.076;11.878;2024-02-23T03:13:24;5.50;99.90
19397;DHT22;9834;48.076;11.878;2024-02-23T03:15:52;5.60;99.90
19397;DHT22;9834;48.076;11.878;2024-02-23T03:18:20;5.50;99.90
19397;DHT22;9834;48.076;11.878;2024-02-23T03:20:48;5.50;99.90
19397;DHT22;9834;48.076;11.878;2024-02-23T03:23:22;5.50;99.90
19397;DHT22;9834;48.076;11.878;2024-02-23T03:25:50;5.50;99.90
19397;DHT22;9834;48.076;11.878;2024-02-23T03:28:19;5.30;99.90
19397;DHT22;9834;48.076;11.878;2024-02-23T03:30:47;5.40;99.90
19397;DHT22;9834;48.076;11.878;2024-02-23T03:33:17;5.40;99.90
19397;DHT22;9834;48.076;11.878;2024-02-23T03:35:45;5.40;99.90
19397;DHT22;9834;48.076;11.878;2024-02-23T03:38:12;5.30;99.90
19397;DHT22;9834;48.076;11.878;2024-02-23T03:40:39;5.30;99.90
19397;DHT22;9834;48.076;11.878;2024-02-23T03:43:09;5.40;99.90
19397;DHT22;9834;48.076;11.878;2024-02-23T03:45:46;5.30;99.90
19397;DHT22;9834;48.076;11.878;2024-02-23T03:48:16;5.30;99.90
19397;DHT22;9834;48.076;11.878;2024-02-23T03:50:43;5.40;99.90
19397;DHT22;9834;48.076;11.878;2024-02-23T03:53:11;5.20;99.90
19397;DHT22;9834;48.076;11.878;2024-02-23T03:55:39;5.20;99.90
19397;DHT22;9834;48.076;11.878;2024-02-23T03:58:09;5.30;99.90
19397;DHT22;9834;48.076;11.878;2024-02-23T04:00:42;5.20;99.90
19397;DHT22;9834;48.076;11.878;2024-02-23T04:03:09;5.20;99.90
19397;DHT22;9834;48.076;11.878;2024-02-23T04:05:41;5.20;99.90
19397;DHT22;9834;48.076;11.878;2024-02-23T04:08:08;5.20;99.90
19397;DHT22;9834;48.076;11.878;2024-02-23T04:10:37;5.20;99.90
19397;DHT22;9834;48.076;11.878;2024-02-23T04:13:06;5.30;99.90
19397;DHT22;9834;48.076;11.878;2024-02-23T04:15:34;5.30;99.90
19397;DHT22;9834;48.076;11.878;2024-02-23T04:18:01;5.30;99.90
19397;DHT22;9834;48.076;11.878;2024-02-23T04:20:28;5.30;99.90
19397;DHT22;9834;48.076;11.878;2024-02-23T04:23:00;5.30;99.90
19397;DHT22;9834;48.076;11.878;2024-02-23T04:25:27;5.50;99.90
19397;DHT22;9834;48.076;11.878;2024-02-23T04:27:57;5.30;99.90
19397;DHT22;9834;48.076;11.878;2024-02-23T04:30:27;5.30;99.90
19397;DHT22;9834;48.076;11.878;2024-02-23T04:32:55;5.20;99.90
19397;DHT22;9834;48.076;11.878;2024-02-23T04:35:22;5.10;99.90
19397;DHT22;9834;48.076;11.878;2024-02-23T04:37:49;5.20;99.90
19397;DHT22;9834;48.076;11.878;2024-02-23T04:40:23;5.10;99.90
19397;DHT22;9834;48.076;11.878;2024-02-23T04:42:53;5.00;99.90
19397;DHT22;9834;48.076;11.878;2024-02-23T04:45:21;5.00;99.90
19397;DHT22;9834;48.076;11.878;2024-02-23T04:47:49;5.00;99.90
19397;DHT22;9834;48.076;11.878;2024-02-23T04:54:14;5.00;99.90
19397;DHT22;9834;48.076;11.878;2024-02-23T04:56:43;5.30;99.90
19397;DHT22;9834;48.076;11.878;2024-02-23T04:59:11;5.00;99.90
19397;DHT22;9834;48.076;11.878;2024-02-23T05:01:39;4.90;99.90
19397;DHT22;9834;48.076;11.878;2024-02-23T05:04:06;5.40;99.90
19397;DHT22;9834;48.076;11.878;2024-02-23T05:06:37;4.90;99.90
19397;DHT22;9834;48.076;11.878;2024-02-23T05:09:04;4.80;99.90
19397;DHT22;9834;48.076;11.878;2024-02-23T05:11:36;4.70;99.90
19397;DHT22;9834;48.076;11.878;2024-02-23T05:14:06;4.70;99.90
19397;DHT22;9834;48.076;11.878;2024-02-23T05:16:33;4.70;99.90
19397;DHT22;9834;48.076;11.878;2024-02-23T05:19:01;4.60;99.90
19397;DHT22;9834;48.076;11.878;2024-02-23T05:21:28;4.70;99.90
19397;DHT22;9834;48.076;11.878;2024-02-23T05:23:58;4.60;99.90
19397;DHT22;9834;48.076;11.878;2024-02-23T05:26:25;4.60;99.90
19397;DHT22;9834;48.076;11.878;2024-02-23T05:28:52;4.60;99.90
19397;DHT22;9834;48.076;11.878;2024-02-23T05:31:45;4.60;99.90
19397;DHT22;9834;48.076;11.878;2024-02-23T05:34:14;4.60;99.90
19397;DHT22;9834;48.076;11.878;2024-02-23T05:36:43;4.70;99.90
19397;DHT22;9834;48.076;11.878;2024-02-23T05:39:11;4.80;99.90
19397;DHT22;9834;48.076;11.878;2024-02-23T05:41:41;4.60;99.90
19397;DHT22;9834;48.076;11.878;2024-02-23T05:44:10;4.60;99.90
19397;DHT22;9834;48.076;11.878;2024-02-23T05:46:43;5.20;99.90
19397;DHT22;9834;48.076;11.878;2024-02-23T05:49:11;4.60;99.90
19397;DHT22;9834;48.076;11.878;2024-02-23T05:51:38;4.60;99.90
19397;DHT22;9834;48.076;11.878;2024-02-23T05:54:05;4.60;99.90
19397;DHT22;9834;48.076;11.878;2024-02-23T05:56:33;4.70;99.90
19397;DHT22;9834;48.076;11.878;2024-02-23T05:59:15;4.60;99.90
19397;DHT22;9834;48.076;11.878;2024-02-23T06:01:46;4.70;99.90
19397;DHT22;9834;48.076;11.878;2024-02-23T06:04:13;4.70;99.90
19397;DHT22;9834;48.076;11.878;2024-02-23T06:06:41;4.60;99.90
19397;DHT22;9834;48.076;11.878;2024-02-23T06:09:09;4.70;99.90
19397;DHT22;9834;48.076;11.878;2024-02-23T06:11:36;4.60;99.90
19397;DHT22;9834;48.076;11.878;2024-02-23T06:14:04;4.70;99.90
19397;DHT22;9834;48.076;11.878;2024-02-23T06:16:32;4.70;99.90
19397;DHT22;9834;48.076;11.878;2024-02-23T06:19:04;4.70;99.90
19397;DHT22;9834;48.076;11.878;2024-02-23T06:21:31;4.60;99.90
19397;DHT22;9834;48.076;11.878;2024-02-23T06:23:59;4.70;99.90
19397;DHT22;9834;48.076;11.878;2024-02-23T06:26:26;4.60;99.90
19397;DHT22;9834;48.076;11.878;2024-02-23T06:28:54;4.60;99.90
19397;DHT22;9834;48.076;11.878;2024-02-23T06:31:21;4.50;99.90
19397;DHT22;9834;48.076;11.878;2024-02-23T06:33:49;4.50;99.90
19397;DHT22;9834;48.076;11.878;2024-02-23T06:36:20;4.50;99.90
19397;DHT22;9834;48.076;11.878;2024-02-23T06:38:55;4.50;99.90
19397;DHT22;9834;48.076;11.878;2024-02-23T06:41:32;4.60;99.90
19397;DHT22;9834;48.076;11.878;2024-02-23T06:44:00;4.60;99.90
19397;DHT22;9834;48.076;11.878;2024-02-23T06:46:29;4.60;99.90
19397;DHT22;9834;48.076;11.878;2024-02-23T06:49:01;4.50;99.90
19397;DHT22;9834;48.076;11.878;2024-02-23T06:51:32;4.70;99.90
19397;DHT22;9834;48.076;11.878;2024-02-23T06:53:59;4.60;99.90
19397;DHT22;9834;48.076;11.878;2024-02-23T06:56:26;4.60;99.90
19397;DHT22;9834;48.076;11.878;2024-02-23T06:58:54;4.60;99.90
19397;DHT22;9834;48.076;11.878;2024-02-23T07:01:21;4.50;99.90
19397;DHT22;9834;48.076;11.878;2024-02-23T07:03:48;4.60;99.90
19397;DHT22;9834;48.076;11.878;2024-02-23T07:06:19;4.60;99.90
19397;DHT22;9834;48.076;11.878;2024-02-23T07:09:04;4.60;99.90
19397;DHT22;9834;48.076;11.878;2024-02-23T07:11:36;4.70;99.90
19397;DHT22;9834;48.076;11.878;2024-02-23T07:14:07;4.70;99.90
19397;DHT22;9834;48.076;11.878;2024-02-23T07:16:40;4.70;99.90
19397;DHT22;9834;48.076;11.878;2024-02-23T07:19:08;4.70;99.90
19397;DHT22;9834;48.076;11.878;2024-02-23T07:21:35;4.80;99.90
19397;DHT22;9834;48.076;11.878;2024-02-23T07:24:07;4.80;99.90
19397;DHT22;9834;48.076;11.878;2024-02-23T07:26:41;4.80;99.90
19397;DHT22;9834;48.076;11.878;2024-02-23T07:29:17;4.80;99.90
19397;DHT22;9834;48.076;11.878;2024-02-23T07:31:46;4.80;99.90
19397;DHT22;9834;48.076;11.878;2024-02-23T07:34:17;4.80;99.90
19397;DHT22;9834;48.076;11.878;2024-02-23T07:36:52;4.90;99.90
19397;DHT22;9834;48.076;11.878;2024-02-23T07:39:28;4.90;99.90
19397;DHT22;9834;48.076;11.878;2024-02-23T07:41:56;5.00;99.90
19397;DHT22;9834;48.076;11.878;2024-02-23T07:44:29;5.00;99.90
19397;DHT22;9834;48.076;11.878;2024-02-23T07:47:02;5.00;99.90
19397;DHT22;9834;48.076;11.878;2024-02-23T07:49:30;5.00;99.90
19397;DHT22;9834;48.076;11.878;2024-02-23T07:51:59;5.00;99.90
19397;DHT22;9834;48.076;11.878;2024-02-23T07:54:51;5.00;99.90
19397;DHT22;9834;48.076;11.878;2024-02-23T07:57:22;5.10;99.90
19397;DHT22;9834;48.076;11.878;2024-02-23T07:59:53;5.10;99.90
19397;DHT22;9834;48.076;11.878;2024-02-23T08:02:24;5.10;99.90
19397;DHT22;9834;48.076;11.878;2024-02-23T08:04:52;5.20;99.90
19397;DHT22;9834;48.076;11.878;2024-02-23T08:07:28;5.20;99.90
19397;DHT22;9834;48.076;11.878;2024-02-23T08:10:01;5.20;99.90
19397;DHT22;9834;48.076;11.878;2024-02-23T08:12:40;5.30;99.90
19397;DHT22;9834;48.076;11.878;2024-02-23T08:15:10;5.30;99.90
19397;DHT22;9834;48.076;11.878;2024-02-23T08:17:38;5.30;99.90
19397;DHT22;9834;48.076;11.878;2024-02-23T08:20:10;5.30;99.90
19397;DHT22;9834;48.076;11.878;2024-02-23T08:22:38;5.40;99.90
19397;DHT22;9834;48.076;11.878;2024-02-23T08:25:11;5.50;99.90
19397;DHT22;9834;48.076;11.878;2024-02-23T08:27:40;5.60;99.90
19397;DHT22;9834;48.076;11.878;2024-02-23T08:30:09;5.60;99.90
19397;DHT22;9834;48.076;11.878;2024-02-23T08:32:41;5.50;99.90
19397;DHT22;9834;48.076;11.878;2024-02-23T08:35:17;5.50;99.90
19397;DHT22;9834;48.076;11.878;2024-02-23T08:37:46;5.60;99.90
19397;DHT22;9834;48.076;11.878;2024-02-23T08:40:21;5.50;99.90
19397;DHT22;9834;48.076;11.878;2024-02-23T08:42:53;5.50;99.90
19397;DHT22;9834;48.076;11.878;2024-02-23T08:45:27;5.50;99.90
19397;DHT22;9834;48.076;11.878;2024-02-23T08:47:57;5.40;99.90
19397;DHT22;9834;48.076;11.878;2024-02-23T08:50:28;5.60;99.90
19397;DHT22;9834;48.076;11.878;2024-02-23T08:53:00;5.70;99.90
19397;DHT22;9834;48.076;11.878;2024-02-23T08:55:30;5.80;99.90
19397;DHT22;9834;48.076;11.878;2024-02-23T08:58:11;5.80;99.90
19397;DHT22;9834;48.076;11.878;2024-02-23T09:00:47;5.80;99.90
19397;DHT22;9834;48.076;11.878;2024-02-23T09:03:38;5.80;99.90
19397;DHT22;9834;48.076;11.878;2024-02-23T09:06:17;5.70;99.90
19397;DHT22;9834;48.076;11.878;2024-02-23T09:08:45;5.70;99.90
19397;DHT22;9834;48.076;11.878;2024-02-23T09:11:22;5.60;99.90
19397;DHT22;9834;48.076;11.878;2024-02-23T09:13:53;5.70;99.90
19397;DHT22;9834;48.076;11.878;2024-02-23T09:16:23;5.70;99.90
19397;DHT22;9834;48.076;11.878;2024-02-23T09:18:54;5.70;99.90
19397;DHT22;9834;48.076;11.878;2024-02-23T09:21:26;5.70;99.90
19397;DHT22;9834;48.076;11.878;2024-02-23T09:24:05;5.70;99.90
19397;DHT22;9834;48.076;11.878;2024-02-23T09:26:41;5.70;99.90
19397;DHT22;9834;48.076;11.878;2024-02-23T09:29:12;5.70;99.90
19397;DHT22;9834;48.076;11.878;2024-02-23T09:31:43;5.60;99.90
19397;DHT22;9834;48.076;11.878;2024-02-23T09:34:16;5.60;99.90
19397;DHT22;9834;48.076;11.878;2024-02-23T09:36:52;5.50;99.90
19397;DHT22;9834;48.076;11.878;2024-02-23T09:39:26;5.50;99.90
19397;DHT22;9834;48.076;11.878;2024-02-23T09:42:01;5.50;99.90
19397;DHT22;9834;48.076;11.878;2024-02-23T09:44:34;5.30;99.90
19397;DHT22;9834;48.076;11.878;2024-02-23T09:47:06;5.20;99.90
19397;DHT22;9834;48.076;11.878;2024-02-23T09:49:38;5.20;99.90
19397;DHT22;9834;48.076;11.878;2024-02-23T09:52:33;5.20;99.90
19397;DHT22;9834;48.076;11.878;2024-02-23T09:55:03;5.20;99.90
19397;DHT22;9834;48.076;11.878;2024-02-23T09:57:41;5.20;99.90
19397;DHT22;9834;48.076;11.878;2024-02-23T10:00:27;5.20;99.90
19397;DHT22;9834;48.076;11.878;2024-02-23T10:02:59;5.60;99.90
19397;DHT22;9834;48.076;11.878;2024-02-23T10:05:32;5.10;99.90
19397;DHT22;9834;48.076;11.878;2024-02-23T10:08:10;5.00;99.90
19397;DHT22;9834;48.076;11.878;2024-02-23T10:10:40;5.00;99.90
19397;DHT22;9834;48.076;11.878;2024-02-23T10:13:10;4.80;99.90
19397;DHT22;9834;48.076;11.878;2024-02-23T10:15:50;4.80;99.90
19397;DHT22;9834;48.076;11.878;2024-02-23T10:18:27;4.90;99.90
19397;DHT22;9834;48.076;11.878;2024-02-23T10:21:05;4.90;99.90
19397;DHT22;9834;48.076;11.878;2024-02-23T10:23:45;5.00;99.90
19397;DHT22;9834;48.076;11.878;2024-02-23T10:26:29;5.00;99.90
19397;DHT22;9834;48.076;11.878;2024-02-23T10:28:59;5.10;99.90
19397;DHT22;9834;48.076;11.878;2024-02-23T10:31:35;5.00;99.90
19397;DHT22;9834;48.076;11.878;2024-02-23T10:34:10;5.10;99.90
19397;DHT22;9834;48.076;11.878;2024-02-23T10:36:42;5.10;99.90
19397;DHT22;9834;48.076;11.878;2024-02-23T10:39:15;5.30;99.90
19397;DHT22;9834;48.076;11.878;2024-02-23T10:41:50;5.40;99.90
19397;DHT22;9834;48.076;11.878;2024-02-23T10:44:28;5.40;99.90
19397;DHT22;9834;48.076;11.878;2024-02-23T10:47:04;5.40;99.90
19397;DHT22;9834;48.076;11.878;2024-02-23T10:49:33;5.50;99.90
19397;DHT22;9834;48.076;11.878;2024-02-23T10:52:08;5.60;99.90
19397;DHT22;9834;48.076;11.878;2024-02-23T10:54:42;5.60;99.90
19397;DHT22;9834;48.076;11.878;2024-02-23T10:57:17;5.60;99.90
19397;DHT22;9834;48.076;11.878;2024-02-23T10:59:47;5.70;99.90
19397;DHT22;9834;48.076;11.878;2024-02-23T11:02:18;5.60;99.90
19397;DHT22;9834;48.076;11.878;2024-02-23T11:04:53;5.60;99.90
19397;DHT22;9834;48.076;11.878;2024-02-23T11:07:29;5.60;99.90
19397;DHT22;9834;48.076;11.878;2024-02-23T11:09:59;5.60;99.90
19397;DHT22;9834;48.076;11.878;2024-02-23T11:12:36;5.70;99.90
19397;DHT22;9834;48.076;11.878;2024-02-23T11:15:30;5.80;99.90
19397;DHT22;9834;48.076;11.878;2024-02-23T11:18:21;5.90;99.90
19397;DHT22;9834;48.076;11.878;2024-02-23T11:20:55;6.00;99.90
19397;DHT22;9834;48.076;11.878;2024-02-23T11:23:23;6.10;99.90
19397;DHT22;9834;48.076;11.878;2024-02-23T11:26:10;6.10;99.90
19397;DHT22;9834;48.076;11.878;2024-02-23T11:28:48;6.20;99.90
19397;DHT22;9834;48.076;11.878;2024-02-23T11:31:23;6.10;99.90
19397;DHT22;9834;48.076;11.878;2024-02-23T11:33:53;5.90;99.90
19397;DHT22;9834;48.076;11.878;2024-02-23T11:36:28;5.90;99.90
19397;DHT22;9834;48.076;11.878;2024-02-23T11:39:05;6.00;99.90
19397;DHT22;9834;48.076;11.878;2024-02-23T11:41:36;6.00;99.90
19397;DHT22;9834;48.076;11.878;2024-02-23T11:44:15;6.00;99.90
19397;DHT22;9834;48.076;11.878;2024-02-23T11:46:51;6.10;99.90
19397;DHT22;9834;48.076;11.878;2024-02-23T11:49:20;6.10;99.90
19397;DHT22;9834;48.076;11.878;2024-02-23T11:51:51;6.10;99.90
19397;DHT22;9834;48.076;11.878;2024-02-23T11:54:22;6.10;99.90
19397;DHT22;9834;48.076;11.878;2024-02-23T11:56:50;6.10;99.90
19397;DHT22;9834;48.076;11.878;2024-02-23T11:59:21;6.00;99.90
19397;DHT22;9834;48.076;11.878;2024-02-23T12:02:02;6.10;99.90
19397;DHT22;9834;48.076;11.878;2024-02-23T12:04:35;6.00;99.90
19397;DHT22;9834;48.076;11.878;2024-02-23T12:07:05;6.10;99.90
19397;DHT22;9834;48.076;11.878;2024-02-23T12:09:34;6.10;99.90
19397;DHT22;9834;48.076;11.878;2024-02-23T12:12:15;6.20;99.90
19397;DHT22;9834;48.076;11.878;2024-02-23T12:14:45;6.20;99.90
19397;DHT22;9834;48.076;11.878;2024-02-23T12:17:19;6.30;99.90
19397;DHT22;9834;48.076;11.878;2024-02-23T12:19:58;6.40;99.90
19397;DHT22;9834;48.076;11.878;2024-02-23T12:22:28;6.60;99.90
19397;DHT22;9834;48.076;11.878;2024-02-23T12:24:58;6.50;99.90
19397;DHT22;9834;48.076;11.878;2024-02-23T12:27:35;6.50;99.90
19397;DHT22;9834;48.076;11.878;2024-02-23T12:30:05;6.60;99.90
19397;DHT22;9834;48.076;11.878;2024-02-23T12:32:44;6.50;99.90
19397;DHT22;9834;48.076;11.878;2024-02-23T12:35:15;6.40;99.90
19397;DHT22;9834;48.076;11.878;2024-02-23T12:37:43;6.30;99.90
19397;DHT22;9834;48.076;11.878;2024-02-23T12:40:19;6.30;99.90
19397;DHT22;9834;48.076;11.878;2024-02-23T12:42:55;6.30;99.90
19397;DHT22;9834;48.076;11.878;2024-02-23T12:45:24;6.40;99.90
19397;DHT22;9834;48.076;11.878;2024-02-23T12:48:09;6.20;99.90
19397;DHT22;9834;48.076;11.878;2024-02-23T12:50:39;6.10;99.90
19397;DHT22;9834;48.076;11.878;2024-02-23T12:53:40;6.00;99.90
19397;DHT22;9834;48.076;11.878;2024-02-23T12:56:17;6.00;99.90
19397;DHT22;9834;48.076;11.878;2024-02-23T12:58:46;5.90;99.90
19397;DHT22;9834;48.076;11.878;2024-02-23T13:01:23;6.00;99.90
19397;DHT22;9834;48.076;11.878;2024-02-23T13:04:07;6.10;99.90
19397;DHT22;9834;48.076;11.878;2024-02-23T13:06:41;6.10;99.90
19397;DHT22;9834;48.076;11.878;2024-02-23T13:09:23;6.10;99.90
19397;DHT22;9834;48.076;11.878;2024-02-23T13:11:52;6.20;99.90
19397;DHT22;9834;48.076;11.878;2024-02-23T13:14:24;6.10;99.90
19397;DHT22;9834;48.076;11.878;2024-02-23T13:16:55;6.10;99.90
19397;DHT22;9834;48.076;11.878;2024-02-23T13:19:38;6.10;99.90
19397;DHT22;9834;48.076;11.878;2024-02-23T13:22:06;6.30;99.90
19397;DHT22;9834;48.076;11.878;2024-02-23T13:24:35;6.30;99.90
19397;DHT22;9834;48.076;11.878;2024-02-23T13:27:27;6.20;99.90
19397;DHT22;9834;48.076;11.878;2024-02-23T13:29:56;6.10;99.90
19397;DHT22;9834;48.076;11.878;2024-02-23T13:32:24;6.00;99.90
19397;DHT22;9834;48.076;11.878;2024-02-23T13:35:00;6.00;99.90
19397;DHT22;9834;48.076;11.878;2024-02-23T13:40:28;5.80;99.90
19397;DHT22;9834;48.076;11.878;2024-02-23T13:42:59;5.70;99.90
19397;DHT22;9834;48.076;11.878;2024-02-23T13:45:30;5.70;99.90
19397;DHT22;9834;48.076;11.878;2024-02-23T13:48:03;5.70;99.90
19397;DHT22;9834;48.076;11.878;2024-02-23T13:50:33;5.70;99.90
19397;DHT22;9834;48.076;11.878;2024-02-23T13:53:05;5.70;99.90
19397;DHT22;9834;48.076;11.878;2024-02-23T13:55:32;5.60;99.90
19397;DHT22;9834;48.076;11.878;2024-02-23T13:58:04;5.60;99.90
19397;DHT22;9834;48.076;11.878;2024-02-23T14:00:32;5.50;99.90
19397;DHT22;9834;48.076;11.878;2024-02-23T14:03:07;5.60;99.90
19397;DHT22;9834;48.076;11.878;2024-02-23T14:05:42;5.70;99.90
19397;DHT22;9834;48.076;11.878;2024-02-23T14:08:12;5.60;99.90
19397;DHT22;9834;48.076;11.878;2024-02-23T14:10:47;5.60;99.90
19397;DHT22;9834;48.076;11.878;2024-02-23T14:13:16;5.40;99.90
19397;DHT22;9834;48.076;11.878;2024-02-23T14:15:52;5.20;99.90
19397;DHT22;9834;48.076;11.878;2024-02-23T14:18:19;5.20;99.90
19397;DHT22;9834;48.076;11.878;2024-02-23T14:20:52;5.20;99.90
19397;DHT22;9834;48.076;11.878;2024-02-23T14:23:24;5.30;99.90
19397;DHT22;9834;48.076;11.878;2024-02-23T14:25:52;5.20;99.90
19397;DHT22;9834;48.076;11.878;2024-02-23T14:28:21;5.20;99.90
19397;DHT22;9834;48.076;11.878;2024-02-23T14:30:53;5.10;99.90
19397;DHT22;9834;48.076;11.878;2024-02-23T14:33:29;5.00;99.90
19397;DHT22;9834;48.076;11.878;2024-02-23T14:36:21;5.00;99.90
19397;DHT22;9834;48.076;11.878;2024-02-23T14:38:50;5.00;99.90
19397;DHT22;9834;48.076;11.878;2024-02-23T14:41:45;4.90;99.90
19397;DHT22;9834;48.076;11.878;2024-02-23T14:44:32;4.90;99.90
19397;DHT22;9834;48.076;11.878;2024-02-23T14:47:04;4.80;99.90
19397;DHT22;9834;48.076;11.878;2024-02-23T14:49:33;4.70;99.90
19397;DHT22;9834;48.076;11.878;2024-02-23T14:52:03;4.70;99.90
19397;DHT22;9834;48.076;11.878;2024-02-23T14:54:34;4.80;99.90
19397;DHT22;9834;48.076;11.878;2024-02-23T14:57:07;4.80;99.90
19397;DHT22;9834;48.076;11.878;2024-02-23T14:59:35;4.70;99.90
19397;DHT22;9834;48.076;11.878;2024-02-23T15:02:16;4.70;99.90
19397;DHT22;9834;48.076;11.878;2024-02-23T15:04:45;4.70;99.90
19397;DHT22;9834;48.076;11.878;2024-02-23T15:07:16;4.70;99.90
19397;DHT22;9834;48.076;11.878;2024-02-23T15:09:48;4.60;99.90
19397;DHT22;9834;48.076;11.878;2024-02-23T15:12:16;4.60;99.90
19397;DHT22;9834;48.076;11.878;2024-02-23T15:14:47;4.60;99.90
19397;DHT22;9834;48.076;11.878;2024-02-23T15:17:18;4.60;99.90
19397;DHT22;9834;48.076;11.878;2024-02-23T15:19:48;4.40;99.90
19397;DHT22;9834;48.076;11.878;2024-02-23T15:22:32;4.50;99.90
19397;DHT22;9834;48.076;11.878;2024-02-23T15:25:03;4.30;99.90
19397;DHT22;9834;48.076;11.878;2024-02-23T15:27:32;4.30;99.90
19397;DHT22;9834;48.076;11.878;2024-02-23T15:30:10;4.30;99.90
19397;DHT22;9834;48.076;11.878;2024-02-23T15:32:45;4.30;99.90
19397;DHT22;9834;48.076;11.878;2024-02-23T15:35:13;4.20;99.90
19397;DHT22;9834;48.076;11.878;2024-02-23T15:37:51;4.00;99.90
19397;DHT22;9834;48.076;11.878;2024-02-23T15:40:18;3.90;99.90
19397;DHT22;9834;48.076;11.878;2024-02-23T15:42:49;3.80;99.90
19397;DHT22;9834;48.076;11.878;2024-02-23T15:45:19;3.80;99.90
19397;DHT22;9834;48.076;11.878;2024-02-23T15:47:55;3.70;99.90
19397;DHT22;9834;48.076;11.878;2024-02-23T15:50:24;3.70;99.90
19397;DHT22;9834;48.076;11.878;2024-02-23T15:52:54;3.70;99.90
19397;DHT22;9834;48.076;11.878;2024-02-23T15:55:22;3.60;99.90
19397;DHT22;9834;48.076;11.878;2024-02-23T15:57:58;3.60;99.90
19397;DHT22;9834;48.076;11.878;2024-02-23T16:00:26;3.60;99.90
19397;DHT22;9834;48.076;11.878;2024-02-23T16:02:56;3.50;99.90
19397;DHT22;9834;48.076;11.878;2024-02-23T16:05:32;3.50;99.90
19397;DHT22;9834;48.076;11.878;2024-02-23T16:08:00;3.50;99.90
19397;DHT22;9834;48.076;11.878;2024-02-23T16:10:30;3.50;99.90
19397;DHT22;9834;48.076;11.878;2024-02-23T16:12:58;3.40;99.90
19397;DHT22;9834;48.076;11.878;2024-02-23T16:15:25;3.50;99.90
19397;DHT22;9834;48.076;11.878;2024-02-23T16:17:53;3.50;99.90
19397;DHT22;9834;48.076;11.878;2024-02-23T16:20:23;3.40;99.90